Time;durP1;ratioP1;P1;durP2;ratioP2;P2;SDS_P1;SDS_P2;PMS_P1;PMS_P2;Temp;Humidity;BMP_temperature;BMP_pressure;BME280_temperature;BME280_humidity;BME280_pressure;Samples;Min_cycle;Max_cycle;Signal;HPM_P1;HPM_P2
2023/09/21 00:00:14;;;;;;;;;;;18.70;99.90;;;;;;5096788;28;20366;-63
2023/09/21 00:02:44;;;;;;;;;;;18.70;99.90;;;;;;5097115;28;19904;-62
2023/09/21 00:05:10;;;;;;;;;;;18.70;99.90;;;;;;5097088;28;19904;-62
2023/09/21 00:07:36;;;;;;;;;;;18.70;99.90;;;;;;5096925;28;19908;-62
2023/09/21 00:10:03;;;;;;;;;;;18.60;99.90;;;;;;5096756;28;19904;-63
2023/09/21 00:12:28;;;;;;;;;;;18.60;99.90;;;;;;5096198;28;20376;-63
2023/09/21 00:14:54;;;;;;;;;;;18.50;99.90;;;;;;5096923;28;19911;-62
2023/09/21 00:17:20;;;;;;;;;;;18.40;99.90;;;;;;5097066;28;19911;-62
2023/09/21 00:19:46;;;;;;;;;;;18.40;99.90;;;;;;5096782;28;19904;-62
2023/09/21 00:22:11;;;;;;;;;;;18.30;99.90;;;;;;5096435;28;19911;-63
2023/09/21 00:24:37;;;;;;;;;;;18.40;99.90;;;;;;5095095;28;19943;-62
2023/09/21 00:27:03;;;;;;;;;;;18.40;99.90;;;;;;5097155;28;19911;-59
2023/09/21 00:29:30;;;;;;;;;;;18.30;99.90;;;;;;5079362;28;19904;-61
2023/09/21 00:31:57;;;;;;;;;;;18.30;99.90;;;;;;5077189;28;19909;-61
2023/09/21 00:34:24;;;;;;;;;;;18.30;99.90;;;;;;5075873;28;19966;-62
2023/09/21 00:36:50;;;;;;;;;;;18.30;99.90;;;;;;5075015;28;19973;-62
2023/09/21 00:39:15;;;;;;;;;;;18.30;99.90;;;;;;5076158;28;19909;-62
2023/09/21 00:41:41;;;;;;;;;;;18.20;99.90;;;;;;5076026;28;20256;-62
2023/09/21 00:44:09;;;;;;;;;;;18.30;99.90;;;;;;5075437;28;20260;-63
2023/09/21 00:46:36;;;;;;;;;;;18.20;99.90;;;;;;5075898;28;19928;-62
2023/09/21 00:49:04;;;;;;;;;;;18.10;99.90;;;;;;5075867;28;20283;-61
2023/09/21 00:51:30;;;;;;;;;;;18.10;99.90;;;;;;5076105;28;19954;-62
2023/09/21 00:53:56;;;;;;;;;;;18.10;99.90;;;;;;5076234;28;19979;-63
2023/09/21 00:56:22;;;;;;;;;;;18.10;99.90;;;;;;5075639;28;19908;-62
2023/09/21 00:58:49;;;;;;;;;;;18.10;99.90;;;;;;5087690;28;20286;-62
2023/09/21 01:01:22;;;;;;;;;;;18.10;99.90;;;;;;5096227;28;19904;-60
2023/09/21 01:03:49;;;;;;;;;;;18.20;99.90;;;;;;5096605;28;19904;-62
2023/09/21 01:06:18;;;;;;;;;;;18.10;99.90;;;;;;5096648;28;19911;-62
2023/09/21 01:08:43;;;;;;;;;;;18.20;99.90;;;;;;5095924;28;19908;-60
2023/09/21 01:11:14;;;;;;;;;;;18.20;99.90;;;;;;5095817;28;19904;-62
2023/09/21 01:13:40;;;;;;;;;;;18.20;99.90;;;;;;5095098;28;19912;-61
2023/09/21 01:16:06;;;;;;;;;;;18.20;99.90;;;;;;5095494;28;19991;-60
2023/09/21 01:18:32;;;;;;;;;;;18.20;99.90;;;;;;5095574;28;20279;-61
2023/09/21 01:21:04;;;;;;;;;;;18.20;99.90;;;;;;5095030;28;19904;-63
2023/09/21 01:23:35;;;;;;;;;;;18.30;99.90;;;;;;5095321;28;19919;-61
2023/09/21 01:26:00;;;;;;;;;;;18.30;99.90;;;;;;5095483;28;19930;-63
2023/09/21 01:28:27;;;;;;;;;;;18.30;99.90;;;;;;5095238;28;19987;-62
2023/09/21 01:30:53;;;;;;;;;;;18.30;99.90;;;;;;5095689;28;19911;-63
2023/09/21 01:33:18;;;;;;;;;;;18.30;99.90;;;;;;5095098;28;19908;-62
2023/09/21 01:35:44;;;;;;;;;;;18.30;99.90;;;;;;5095490;28;19935;-62
2023/09/21 01:38:11;;;;;;;;;;;18.30;99.90;;;;;;5095601;28;19904;-62
2023/09/21 01:40:37;;;;;;;;;;;18.30;99.90;;;;;;5095714;28;20282;-62
2023/09/21 01:43:03;;;;;;;;;;;18.30;99.90;;;;;;5094734;28;19911;-61
2023/09/21 01:45:29;;;;;;;;;;;18.50;99.90;;;;;;5095090;28;19904;-61
2023/09/21 01:47:54;;;;;;;;;;;18.80;99.90;;;;;;5094795;28;19904;-64
2023/09/21 01:50:21;;;;;;;;;;;18.90;99.90;;;;;;5095001;28;19904;-62
2023/09/21 01:52:46;;;;;;;;;;;18.90;99.90;;;;;;5095252;28;19915;-61
2023/09/21 01:55:12;;;;;;;;;;;18.70;99.90;;;;;;5094639;28;20286;-61
2023/09/21 01:57:38;;;;;;;;;;;18.60;99.90;;;;;;5094661;28;20329;-61
2023/09/21 02:00:12;;;;;;;;;;;18.50;99.90;;;;;;5094569;28;20356;-62
2023/09/21 02:02:38;;;;;;;;;;;18.50;99.90;;;;;;5094937;28;19989;-61
2023/09/21 02:05:04;;;;;;;;;;;18.40;99.90;;;;;;5094527;28;19908;-63
2023/09/21 02:07:30;;;;;;;;;;;18.40;99.90;;;;;;5094626;28;19904;-62
2023/09/21 02:09:56;;;;;;;;;;;18.40;99.90;;;;;;5093286;28;19904;-62
2023/09/21 02:12:23;;;;;;;;;;;18.40;99.90;;;;;;5094940;28;19904;-62
2023/09/21 02:14:48;;;;;;;;;;;18.40;99.90;;;;;;5095075;28;19910;-61
2023/09/21 02:17:14;;;;;;;;;;;18.40;99.90;;;;;;5094569;28;19990;-62
2023/09/21 02:19:39;;;;;;;;;;;18.40;99.90;;;;;;5095022;28;20323;-62
2023/09/21 02:22:07;;;;;;;;;;;18.50;99.90;;;;;;5094474;28;19946;-62
2023/09/21 02:24:33;;;;;;;;;;;18.40;99.90;;;;;;5094337;28;19904;-62
2023/09/21 02:26:58;;;;;;;;;;;18.40;99.90;;;;;;5095124;28;19904;-62
2023/09/21 02:29:24;;;;;;;;;;;18.40;99.90;;;;;;5096350;28;19915;-63
2023/09/21 02:31:49;;;;;;;;;;;18.40;99.90;;;;;;5095574;28;19904;-62
2023/09/21 02:34:16;;;;;;;;;;;18.40;99.90;;;;;;5095724;28;20267;-61
2023/09/21 02:36:43;;;;;;;;;;;18.40;99.90;;;;;;5095772;28;20321;-62
2023/09/21 02:39:08;;;;;;;;;;;18.40;99.90;;;;;;5094805;28;20381;-62
2023/09/21 02:41:34;;;;;;;;;;;18.50;99.90;;;;;;5094869;28;19904;-62
2023/09/21 02:44:00;;;;;;;;;;;18.40;99.90;;;;;;5093927;28;19946;-62
2023/09/21 02:46:28;;;;;;;;;;;18.40;99.90;;;;;;5094052;28;19911;-63
2023/09/21 02:48:53;;;;;;;;;;;18.30;99.90;;;;;;5095050;28;19911;-62
2023/09/21 02:51:19;;;;;;;;;;;18.30;99.90;;;;;;5095319;28;19965;-62
2023/09/21 02:53:46;;;;;;;;;;;18.30;99.90;;;;;;5095042;28;19908;-62
2023/09/21 02:56:12;;;;;;;;;;;18.40;99.90;;;;;;5095258;28;20298;-62
2023/09/21 02:58:39;;;;;;;;;;;18.40;99.90;;;;;;5094140;28;19904;-62
2023/09/21 03:01:05;;;;;;;;;;;18.50;99.90;;;;;;5094524;28;19908;-62
2023/09/21 03:03:30;;;;;;;;;;;18.50;99.90;;;;;;5093716;28;19904;-62
2023/09/21 03:05:56;;;;;;;;;;;18.50;99.90;;;;;;5093836;28;19998;-62
2023/09/21 03:08:22;;;;;;;;;;;18.50;99.90;;;;;;5094131;28;19953;-62
2023/09/21 03:10:54;;;;;;;;;;;18.40;99.90;;;;;;5093648;28;19912;-62
2023/09/21 03:13:20;;;;;;;;;;;18.40;99.90;;;;;;5093356;28;19908;-62
2023/09/21 03:15:47;;;;;;;;;;;18.40;99.90;;;;;;5093485;28;19904;-62
2023/09/21 03:18:13;;;;;;;;;;;18.40;99.90;;;;;;5093533;28;19904;-62
2023/09/21 03:20:38;;;;;;;;;;;18.50;99.90;;;;;;5093942;28;20335;-62
2023/09/21 03:23:05;;;;;;;;;;;18.50;99.90;;;;;;5093495;28;19936;-62
2023/09/21 03:25:33;;;;;;;;;;;18.60;99.90;;;;;;5093496;28;19923;-62
2023/09/21 03:28:10;;;;;;;;;;;18.60;99.90;;;;;;5093362;28;19946;-63
2023/09/21 03:30:36;;;;;;;;;;;18.60;99.90;;;;;;5093616;28;19908;-62
2023/09/21 03:33:01;;;;;;;;;;;18.60;99.90;;;;;;5093470;28;19955;-62
2023/09/21 03:35:27;;;;;;;;;;;18.60;99.90;;;;;;5093508;28;19911;-62
2023/09/21 03:37:53;;;;;;;;;;;18.60;99.90;;;;;;5093503;28;19904;-59
2023/09/21 03:40:19;;;;;;;;;;;18.50;99.90;;;;;;5093465;28;19911;-61
2023/09/21 03:42:45;;;;;;;;;;;18.40;99.90;;;;;;5093328;28;20255;-62
2023/09/21 03:45:14;;;;;;;;;;;18.30;99.90;;;;;;5093297;28;19911;-61
2023/09/21 03:47:40;;;;;;;;;;;18.20;99.90;;;;;;5093381;28;19907;-60
2023/09/21 03:50:07;;;;;;;;;;;18.20;99.90;;;;;;5093185;28;19904;-62
2023/09/21 03:52:33;;;;;;;;;;;18.10;99.90;;;;;;5092016;28;20302;-60
2023/09/21 03:55:01;;;;;;;;;;;18.10;99.90;;;;;;5093824;28;19908;-62
2023/09/21 03:57:27;;;;;;;;;;;18.10;99.90;;;;;;5093186;28;19939;-61
2023/09/21 03:59:55;;;;;;;;;;;18.10;99.90;;;;;;5093029;28;19904;-62
2023/09/21 04:02:22;;;;;;;;;;;18.10;99.90;;;;;;5093637;28;19908;-62
2023/09/21 04:04:51;;;;;;;;;;;18.10;99.90;;;;;;5093228;28;20373;-62
2023/09/21 04:07:17;;;;;;;;;;;18.10;99.90;;;;;;5094616;28;20316;-62
2023/09/21 04:09:46;;;;;;;;;;;18.20;99.90;;;;;;5096599;28;19904;-62
2023/09/21 04:12:12;;;;;;;;;;;18.10;99.90;;;;;;5097450;28;19985;-60
2023/09/21 04:14:37;;;;;;;;;;;18.20;99.90;;;;;;5096790;28;20351;-59
2023/09/21 04:17:03;;;;;;;;;;;18.20;99.90;;;;;;5096442;28;19937;-60
2023/09/21 04:19:29;;;;;;;;;;;18.20;99.90;;;;;;5096788;28;19910;-62
2023/09/21 04:21:54;;;;;;;;;;;18.20;99.90;;;;;;5096698;28;19904;-63
2023/09/21 04:24:20;;;;;;;;;;;18.10;99.90;;;;;;5096213;28;19941;-64
2023/09/21 04:26:45;;;;;;;;;;;18.10;99.90;;;;;;5096645;28;19915;-62
2023/09/21 04:29:15;;;;;;;;;;;18.10;99.90;;;;;;5099288;28;20401;-61
2023/09/21 04:31:41;;;;;;;;;;;18.10;99.90;;;;;;5096400;28;19903;-62
2023/09/21 04:34:06;;;;;;;;;;;18.10;99.90;;;;;;5080053;28;20286;-62
2023/09/21 04:36:32;;;;;;;;;;;18.10;99.90;;;;;;5075850;28;19971;-62
2023/09/21 04:38:59;;;;;;;;;;;18.10;99.90;;;;;;5082948;28;19915;-62
2023/09/21 04:41:27;;;;;;;;;;;18.10;99.90;;;;;;5090441;28;19965;-61
2023/09/21 04:43:53;;;;;;;;;;;18.20;99.90;;;;;;5088940;28;19966;-62
2023/09/21 04:46:19;;;;;;;;;;;18.30;99.90;;;;;;5095994;28;20386;-62
2023/09/21 04:48:45;;;;;;;;;;;18.30;99.90;;;;;;5090440;28;19912;-62
2023/09/21 04:51:12;;;;;;;;;;;18.20;99.90;;;;;;5090179;28;20328;-62
2023/09/21 04:53:37;;;;;;;;;;;18.50;99.90;;;;;;5095292;28;19915;-62
2023/09/21 04:56:03;;;;;;;;;;;18.50;99.90;;;;;;5095984;28;19904;-63
2023/09/21 04:58:28;;;;;;;;;;;18.40;99.90;;;;;;5084840;28;20326;-62
2023/09/21 05:00:54;;;;;;;;;;;18.30;99.90;;;;;;5084463;28;19908;-62
2023/09/21 05:03:19;;;;;;;;;;;18.40;99.90;;;;;;5078240;28;20347;-62
2023/09/21 05:05:46;;;;;;;;;;;18.30;99.90;;;;;;5086503;28;19991;-62
2023/09/21 05:08:12;;;;;;;;;;;18.20;99.90;;;;;;5084065;28;19912;-62
2023/09/21 05:10:40;;;;;;;;;;;18.10;99.90;;;;;;5084522;28;19912;-62
2023/09/21 05:13:05;;;;;;;;;;;18.00;99.90;;;;;;5075060;28;19913;-63
2023/09/21 05:15:30;;;;;;;;;;;18.00;99.90;;;;;;5080543;28;19929;-62
2023/09/21 05:17:56;;;;;;;;;;;18.00;99.90;;;;;;5083375;28;20393;-61
2023/09/21 05:20:21;;;;;;;;;;;18.00;99.90;;;;;;5088970;28;20362;-62
2023/09/21 05:22:47;;;;;;;;;;;18.00;99.90;;;;;;5094603;28;20290;-62
2023/09/21 05:25:12;;;;;;;;;;;18.00;99.90;;;;;;5095319;28;20401;-63
2023/09/21 05:27:38;;;;;;;;;;;18.10;99.90;;;;;;5095611;28;20447;-61
2023/09/21 05:30:04;;;;;;;;;;;18.10;99.90;;;;;;5093852;28;19939;-62
2023/09/21 05:32:32;;;;;;;;;;;18.10;99.90;;;;;;5095197;28;19904;-63
2023/09/21 05:34:58;;;;;;;;;;;18.10;99.90;;;;;;5095375;28;19904;-62
2023/09/21 05:37:23;;;;;;;;;;;18.10;99.90;;;;;;5095217;28;19993;-63
2023/09/21 05:39:49;;;;;;;;;;;18.20;99.90;;;;;;5095754;28;19910;-62
2023/09/21 05:42:18;;;;;;;;;;;18.10;99.90;;;;;;5094802;28;19951;-63
2023/09/21 05:44:44;;;;;;;;;;;18.20;99.90;;;;;;5094832;28;19908;-66
2023/09/21 05:47:10;;;;;;;;;;;18.20;99.90;;;;;;5094469;28;19915;-65
2023/09/21 05:49:36;;;;;;;;;;;18.20;99.90;;;;;;5095926;28;19911;-60
2023/09/21 05:52:08;;;;;;;;;;;18.20;99.90;;;;;;5095628;28;19920;-62
2023/09/21 05:54:37;;;;;;;;;;;18.20;99.90;;;;;;5094435;28;19966;-62
2023/09/21 05:57:05;;;;;;;;;;;18.20;99.90;;;;;;5094707;28;20278;-62
2023/09/21 05:59:31;;;;;;;;;;;18.40;99.90;;;;;;5094464;28;19911;-62
2023/09/21 06:01:57;;;;;;;;;;;18.40;99.90;;;;;;5094512;28;19904;-62
2023/09/21 06:04:23;;;;;;;;;;;18.40;99.90;;;;;;5094422;28;19904;-62
2023/09/21 06:06:55;;;;;;;;;;;18.40;99.90;;;;;;5094697;28;19903;-62
2023/09/21 06:09:24;;;;;;;;;;;18.40;99.90;;;;;;5095324;28;19904;-62
2023/09/21 06:11:50;;;;;;;;;;;18.40;99.90;;;;;;5094694;28;20343;-62
2023/09/21 06:14:17;;;;;;;;;;;18.50;99.90;;;;;;5093959;28;20354;-62
2023/09/21 06:16:43;;;;;;;;;;;18.50;99.90;;;;;;5094408;28;19904;-61
2023/09/21 06:19:11;;;;;;;;;;;18.50;99.90;;;;;;5094152;28;19999;-62
2023/09/21 06:21:36;;;;;;;;;;;18.60;99.90;;;;;;5093254;28;19954;-62
2023/09/21 06:24:04;;;;;;;;;;;18.50;99.90;;;;;;5094222;28;19919;-62
2023/09/21 06:26:30;;;;;;;;;;;18.50;99.90;;;;;;5094036;28;19904;-63
2023/09/21 06:28:55;;;;;;;;;;;18.40;99.90;;;;;;5093767;28;19904;-62
2023/09/21 06:31:21;;;;;;;;;;;18.30;99.90;;;;;;5094564;28;19911;-61
2023/09/21 06:33:47;;;;;;;;;;;18.30;99.90;;;;;;5096547;28;19912;-63
2023/09/21 06:36:20;;;;;;;;;;;18.30;99.90;;;;;;5097199;28;19988;-62
2023/09/21 06:38:46;;;;;;;;;;;18.30;99.90;;;;;;5095242;28;19908;-62
2023/09/21 06:43:47;;;;;;;;;;;18.50;99.90;;;;;;5089858;28;19920;-68
2023/09/21 06:46:13;;;;;;;;;;;18.50;99.90;;;;;;5094118;28;19957;-68
2023/09/21 06:48:38;;;;;;;;;;;18.60;99.90;;;;;;5093960;28;19983;-68
2023/09/21 06:51:04;;;;;;;;;;;18.60;99.90;;;;;;5093753;28;19911;-68
2023/09/21 06:53:31;;;;;;;;;;;18.80;99.90;;;;;;5093699;28;19943;-67
2023/09/21 06:55:58;;;;;;;;;;;18.90;99.90;;;;;;5094392;28;19903;-68
2023/09/21 06:58:24;;;;;;;;;;;18.90;99.90;;;;;;5095049;28;20002;-68
2023/09/21 07:00:49;;;;;;;;;;;18.90;99.90;;;;;;5094371;28;19954;-68
2023/09/21 07:03:17;;;;;;;;;;;18.90;99.90;;;;;;5093092;28;20008;-68
2023/09/21 07:05:44;;;;;;;;;;;19.00;99.90;;;;;;5094899;28;19908;-67
2023/09/21 07:08:12;;;;;;;;;;;18.90;99.90;;;;;;5098230;28;19904;-68
2023/09/21 07:10:38;;;;;;;;;;;18.80;99.90;;;;;;5101387;28;19950;-66
2023/09/21 07:13:07;;;;;;;;;;;18.80;99.90;;;;;;5097375;28;19908;-67
2023/09/21 07:15:33;;;;;;;;;;;18.80;99.90;;;;;;5100039;28;19981;-68
2023/09/21 07:17:58;;;;;;;;;;;18.80;99.90;;;;;;5099506;28;19904;-67
2023/09/21 07:20:26;;;;;;;;;;;18.80;99.90;;;;;;5097299;28;20341;-68
2023/09/21 07:22:52;;;;;;;;;;;18.80;99.90;;;;;;5094472;28;20506;-68
2023/09/21 07:25:17;;;;;;;;;;;18.90;99.90;;;;;;5095365;28;19999;-68
2023/09/21 07:27:43;;;;;;;;;;;18.90;99.90;;;;;;5094682;28;19953;-68
2023/09/21 07:30:08;;;;;;;;;;;18.90;99.90;;;;;;5094474;28;19905;-67
2023/09/21 07:32:35;;;;;;;;;;;19.00;99.90;;;;;;5092802;28;19949;-68
2023/09/21 07:35:04;;;;;;;;;;;19.00;99.90;;;;;;5093339;28;19904;-68
2023/09/21 07:37:30;;;;;;;;;;;19.00;99.90;;;;;;5094368;28;19953;-68
2023/09/21 07:39:56;;;;;;;;;;;19.00;99.90;;;;;;5092648;28;19904;-68
2023/09/21 07:42:22;;;;;;;;;;;19.00;99.90;;;;;;5093615;28;19916;-68
2023/09/21 07:44:48;;;;;;;;;;;19.10;99.90;;;;;;5094267;28;20369;-68
2023/09/21 07:47:14;;;;;;;;;;;19.10;99.90;;;;;;5096796;28;19904;-68
2023/09/21 07:49:39;;;;;;;;;;;19.20;99.90;;;;;;5096641;28;19998;-68
2023/09/21 07:52:07;;;;;;;;;;;19.30;99.90;;;;;;5097707;28;19998;-68
2023/09/21 07:54:33;;;;;;;;;;;19.50;99.90;;;;;;5098118;28;19919;-68
2023/09/21 07:56:59;;;;;;;;;;;19.60;99.90;;;;;;5097545;28;19908;-67
2023/09/21 07:59:24;;;;;;;;;;;19.70;99.90;;;;;;5097297;28;19904;-68
2023/09/21 08:01:51;;;;;;;;;;;19.80;99.90;;;;;;5097464;28;19904;-68
2023/09/21 08:04:17;;;;;;;;;;;19.80;99.90;;;;;;5096806;28;20358;-68
2023/09/21 08:06:43;;;;;;;;;;;19.80;99.90;;;;;;5097701;28;19994;-68
2023/09/21 08:09:08;;;;;;;;;;;19.70;99.90;;;;;;5095747;28;19908;-68
2023/09/21 08:11:34;;;;;;;;;;;19.60;99.90;;;;;;5096858;28;19923;-67
2023/09/21 08:13:59;;;;;;;;;;;19.50;99.90;;;;;;5095183;28;19912;-69
2023/09/21 08:16:25;;;;;;;;;;;19.50;99.90;;;;;;5096944;28;19994;-68
2023/09/21 08:18:50;;;;;;;;;;;19.50;99.90;;;;;;5094623;28;19993;-68
2023/09/21 08:21:17;;;;;;;;;;;19.50;99.90;;;;;;5096662;28;19904;-67
2023/09/21 08:23:43;;;;;;;;;;;19.50;99.90;;;;;;5097090;28;20375;-68
2023/09/21 08:26:08;;;;;;;;;;;19.60;99.90;;;;;;5096389;28;19950;-67
2023/09/21 08:28:34;;;;;;;;;;;19.70;99.90;;;;;;5096462;28;19904;-67
2023/09/21 08:30:59;;;;;;;;;;;19.80;99.90;;;;;;5094793;28;20002;-68
2023/09/21 08:33:24;;;;;;;;;;;19.80;99.90;;;;;;5095986;28;19956;-68
2023/09/21 08:35:50;;;;;;;;;;;19.90;99.90;;;;;;5096213;28;19910;-68
2023/09/21 08:38:17;;;;;;;;;;;19.80;99.90;;;;;;5095979;28;20008;-68
2023/09/21 08:40:46;;;;;;;;;;;19.90;99.90;;;;;;5095976;28;19911;-68
2023/09/21 08:43:14;;;;;;;;;;;19.90;99.90;;;;;;5095751;28;19912;-67
2023/09/21 08:45:40;;;;;;;;;;;20.00;99.90;;;;;;5095606;28;19951;-67
2023/09/21 08:48:06;;;;;;;;;;;20.00;99.90;;;;;;5094400;28;19950;-67
2023/09/21 08:50:32;;;;;;;;;;;20.20;99.90;;;;;;5095490;28;19908;-67
2023/09/21 08:52:59;;;;;;;;;;;20.20;99.90;;;;;;5095300;28;20282;-67
2023/09/21 08:55:25;;;;;;;;;;;20.30;99.90;;;;;;5094427;28;19904;-68
2023/09/21 08:57:52;;;;;;;;;;;20.30;99.90;;;;;;5094392;28;19911;-68
2023/09/21 09:00:19;;;;;;;;;;;20.40;99.90;;;;;;5094314;28;19911;-68
2023/09/21 09:02:45;;;;;;;;;;;20.50;99.90;;;;;;5094621;28;19955;-68
2023/09/21 09:05:11;;;;;;;;;;;20.60;99.90;;;;;;5095653;28;19904;-68
2023/09/21 09:07:39;;;;;;;;;;;20.60;99.90;;;;;;5095648;28;19904;-68
2023/09/21 09:10:06;;;;;;;;;;;20.70;99.90;;;;;;5095445;28;19999;-68
2023/09/21 09:12:32;;;;;;;;;;;20.80;99.90;;;;;;5095424;28;19911;-68
2023/09/21 09:15:02;;;;;;;;;;;20.90;99.90;;;;;;5095069;28;19995;-68
2023/09/21 09:20:32;;;;;;;;;;;21.00;99.90;;;;;;5094402;28;20009;-68
2023/09/21 09:23:00;;;;;;;;;;;21.20;99.90;;;;;;5095533;28;20358;-68
2023/09/21 09:25:26;;;;;;;;;;;21.20;99.90;;;;;;5096038;28;19994;-68
2023/09/21 09:27:51;;;;;;;;;;;21.20;99.90;;;;;;5095300;28;19978;-68
2023/09/21 09:30:18;;;;;;;;;;;21.30;99.90;;;;;;5095158;28;19915;-68
2023/09/21 09:32:47;;;;;;;;;;;21.40;99.90;;;;;;5095301;28;20381;-68
2023/09/21 09:35:13;;;;;;;;;;;21.60;99.90;;;;;;5095310;28;19935;-68
2023/09/21 09:37:39;;;;;;;;;;;21.90;99.90;;;;;;5094727;28;19990;-68
2023/09/21 09:40:13;;;;;;;;;;;22.10;99.90;;;;;;5095417;28;19907;-68
2023/09/21 09:42:41;;;;;;;;;;;22.40;99.90;;;;;;5093609;28;19916;-68
2023/09/21 09:45:16;;;;;;;;;;;22.60;99.90;;;;;;5093704;28;20338;-68
2023/09/21 09:47:47;;;;;;;;;;;22.90;99.90;;;;;;5095004;28;19904;-68
2023/09/21 09:50:16;;;;;;;;;;;22.90;99.90;;;;;;5093710;28;19938;-68
2023/09/21 09:52:43;;;;;;;;;;;23.00;99.90;;;;;;5094555;28;19904;-68
2023/09/21 09:55:12;;;;;;;;;;;22.90;99.90;;;;;;5094949;28;19904;-68
2023/09/21 09:57:40;;;;;;;;;;;23.00;99.90;;;;;;5094618;28;19904;-68
2023/09/21 10:00:20;;;;;;;;;;;23.10;99.90;;;;;;5094950;28;20427;-68
2023/09/21 10:02:47;;;;;;;;;;;23.10;99.90;;;;;;5094813;28;19911;-68
2023/09/21 10:05:13;;;;;;;;;;;23.20;99.90;;;;;;5093382;28;19908;-68
2023/09/21 10:07:39;;;;;;;;;;;23.40;99.90;;;;;;5094225;28;19904;-67
2023/09/21 10:10:07;;;;;;;;;;;23.50;99.90;;;;;;5094541;28;20396;-68
2023/09/21 10:12:32;;;;;;;;;;;23.70;99.90;;;;;;5094482;28;19951;-68
2023/09/21 10:14:58;;;;;;;;;;;23.60;99.90;;;;;;5093068;28;19936;-67
2023/09/21 10:17:24;;;;;;;;;;;23.40;99.90;;;;;;5092879;28;19996;-67
2023/09/21 10:19:49;;;;;;;;;;;23.30;99.90;;;;;;5094308;28;19904;-67
2023/09/21 10:22:22;;;;;;;;;;;23.10;99.90;;;;;;5093704;28;19954;-68
2023/09/21 10:24:53;;;;;;;;;;;23.00;99.90;;;;;;5096622;28;19904;-68
2023/09/21 10:27:24;;;;;;;;;;;23.10;99.90;;;;;;5093030;28;19955;-68
2023/09/21 10:29:54;;;;;;;;;;;23.10;99.90;;;;;;5094434;28;19961;-68
2023/09/21 10:32:23;;;;;;;;;;;23.20;99.90;;;;;;5093943;28;19949;-68
2023/09/21 10:34:50;;;;;;;;;;;23.30;99.90;;;;;;5094067;28;19931;-68
2023/09/21 10:37:23;;;;;;;;;;;23.30;99.90;;;;;;5092637;28;19904;-68
2023/09/21 10:39:57;;;;;;;;;;;23.20;99.90;;;;;;5092813;28;19930;-68
2023/09/21 10:42:27;;;;;;;;;;;23.30;99.90;;;;;;5093530;28;20331;-68
2023/09/21 10:44:53;;;;;;;;;;;23.40;99.90;;;;;;5092306;28;19904;-67
2023/09/21 10:47:37;;;;;;;;;;;23.60;99.90;;;;;;5093884;28;19908;-67
2023/09/21 10:50:03;;;;;;;;;;;23.70;99.90;;;;;;5092389;28;19954;-67
2023/09/21 10:52:29;;;;;;;;;;;23.90;99.90;;;;;;5091923;28;19904;-67
2023/09/21 10:54:55;;;;;;;;;;;24.10;99.90;;;;;;5093804;28;19930;-68
2023/09/21 10:57:22;;;;;;;;;;;24.30;99.90;;;;;;5093856;28;19904;-67
2023/09/21 10:59:49;;;;;;;;;;;24.50;99.90;;;;;;5093862;28;19911;-67
2023/09/21 11:02:14;;;;;;;;;;;24.70;99.90;;;;;;5092117;28;19915;-67
2023/09/21 11:04:40;;;;;;;;;;;24.80;99.90;;;;;;5092672;28;20351;-67
2023/09/21 11:07:05;;;;;;;;;;;24.70;99.90;;;;;;5093994;28;20031;-67
2023/09/21 11:09:31;;;;;;;;;;;24.60;99.90;;;;;;5092852;28;19912;-68
2023/09/21 11:11:57;;;;;;;;;;;24.60;99.90;;;;;;5094118;28;19950;-68
2023/09/21 11:14:22;;;;;;;;;;;24.70;99.90;;;;;;5093772;28;20247;-68
2023/09/21 11:16:48;;;;;;;;;;;24.70;99.90;;;;;;5092311;28;19954;-68
2023/09/21 11:19:14;;;;;;;;;;;25.00;99.90;;;;;;5091983;28;19958;-68
2023/09/21 11:21:40;;;;;;;;;;;25.30;99.90;;;;;;5097173;28;19904;-67
2023/09/21 11:24:06;;;;;;;;;;;25.50;99.90;;;;;;5097885;28;19972;-68
2023/09/21 11:26:32;;;;;;;;;;;25.80;99.90;;;;;;5097947;28;19969;-68
2023/09/21 11:28:58;;;;;;;;;;;25.80;99.90;;;;;;5096267;28;19908;-68
2023/09/21 11:31:23;;;;;;;;;;;25.80;99.90;;;;;;5097327;28;19911;-68
2023/09/21 11:33:49;;;;;;;;;;;25.80;99.90;;;;;;5097425;28;20273;-68
2023/09/21 11:36:14;;;;;;;;;;;25.80;99.70;;;;;;5097223;28;19904;-68
2023/09/21 11:38:41;;;;;;;;;;;25.70;99.30;;;;;;5097856;28;19904;-67
2023/09/21 11:41:06;;;;;;;;;;;25.60;99.20;;;;;;5097717;28;19911;-67
2023/09/21 11:43:32;;;;;;;;;;;25.40;99.50;;;;;;5097068;28;20324;-67
2023/09/21 11:46:01;;;;;;;;;;;25.60;99.70;;;;;;5096334;28;19904;-67
2023/09/21 11:48:26;;;;;;;;;;;25.60;99.90;;;;;;5095948;28;20235;-67
2023/09/21 11:50:52;;;;;;;;;;;25.70;99.90;;;;;;5095506;28;19964;-68
2023/09/21 11:53:19;;;;;;;;;;;25.70;99.80;;;;;;5095537;28;19914;-68
2023/09/21 11:55:45;;;;;;;;;;;25.70;99.90;;;;;;5097662;28;19912;-68
2023/09/21 11:58:14;;;;;;;;;;;25.80;99.60;;;;;;5097499;28;19911;-66
2023/09/21 12:00:45;;;;;;;;;;;25.80;99.90;;;;;;5097252;28;19911;-68
2023/09/21 12:03:12;;;;;;;;;;;25.80;99.70;;;;;;5096866;28;19985;-68
2023/09/21 12:05:39;;;;;;;;;;;25.70;99.90;;;;;;5096757;28;19904;-68
2023/09/21 12:08:05;;;;;;;;;;;25.60;99.90;;;;;;5095058;28;19911;-68
2023/09/21 12:10:31;;;;;;;;;;;25.50;99.90;;;;;;5095654;28;19904;-68
2023/09/21 12:12:57;;;;;;;;;;;25.40;99.90;;;;;;5095262;28;19915;-68
2023/09/21 12:15:22;;;;;;;;;;;25.40;99.90;;;;;;5096376;28;19912;-69
2023/09/21 12:17:48;;;;;;;;;;;25.40;99.90;;;;;;5095935;28;20374;-70
2023/09/21 12:20:18;;;;;;;;;;;25.40;99.90;;;;;;5096978;28;19926;-70
2023/09/21 12:22:46;;;;;;;;;;;25.50;99.90;;;;;;5096537;28;19904;-70
2023/09/21 12:25:12;;;;;;;;;;;25.60;99.90;;;;;;5097031;28;20293;-70
2023/09/21 12:27:38;;;;;;;;;;;25.80;99.90;;;;;;5097163;28;19904;-70
2023/09/21 12:30:12;;;;;;;;;;;25.80;99.90;;;;;;5097316;28;20358;-70
2023/09/21 12:32:38;;;;;;;;;;;25.90;99.90;;;;;;5096111;28;19943;-70
2023/09/21 12:35:07;;;;;;;;;;;25.80;99.10;;;;;;5095945;28;19947;-70
2023/09/21 12:37:32;;;;;;;;;;;25.70;99.40;;;;;;5095509;28;19908;-70
2023/09/21 12:39:58;;;;;;;;;;;25.60;99.60;;;;;;5096716;28;20415;-70
2023/09/21 12:42:23;;;;;;;;;;;25.50;99.70;;;;;;5095625;28;19923;-68
2023/09/21 12:44:49;;;;;;;;;;;25.60;99.90;;;;;;5094642;28;19985;-68
2023/09/21 12:47:14;;;;;;;;;;;25.80;99.90;;;;;;5096381;28;19904;-68
2023/09/21 12:49:40;;;;;;;;;;;25.80;99.60;;;;;;5094628;28;19995;-68
2023/09/21 12:52:05;;;;;;;;;;;25.90;99.40;;;;;;5095946;28;20282;-68
2023/09/21 12:54:31;;;;;;;;;;;26.10;99.30;;;;;;5095681;28;19940;-68
2023/09/21 12:56:56;;;;;;;;;;;26.20;99.60;;;;;;5095908;28;19927;-68
2023/09/21 12:59:22;;;;;;;;;;;26.20;99.60;;;;;;5095643;28;19927;-68
2023/09/21 13:01:51;;;;;;;;;;;26.20;99.10;;;;;;5095888;28;19904;-68
2023/09/21 13:04:17;;;;;;;;;;;26.20;99.20;;;;;;5094302;28;19903;-68
2023/09/21 13:06:43;;;;;;;;;;;26.30;98.90;;;;;;5094280;28;20354;-68
2023/09/21 13:09:10;;;;;;;;;;;26.20;98.90;;;;;;5095970;28;20355;-68
2023/09/21 13:11:36;;;;;;;;;;;26.20;99.20;;;;;;5095392;28;19904;-68
2023/09/21 13:14:03;;;;;;;;;;;26.10;99.40;;;;;;5095475;28;19931;-68
2023/09/21 13:16:29;;;;;;;;;;;26.10;99.30;;;;;;5095133;28;19911;-68
2023/09/21 13:18:54;;;;;;;;;;;26.00;99.20;;;;;;5095274;28;19951;-68
2023/09/21 13:21:20;;;;;;;;;;;26.00;99.30;;;;;;5095262;28;20266;-68
2023/09/21 13:23:47;;;;;;;;;;;26.00;99.20;;;;;;5095306;28;20243;-68
2023/09/21 13:26:13;;;;;;;;;;;26.00;99.10;;;;;;5095272;28;19915;-68
2023/09/21 13:28:39;;;;;;;;;;;26.20;98.80;;;;;;5095197;28;19908;-68
2023/09/21 13:31:05;;;;;;;;;;;26.30;98.40;;;;;;5095471;28;19904;-68
2023/09/21 13:33:31;;;;;;;;;;;26.40;98.10;;;;;;5094701;28;19908;-68
2023/09/21 13:35:57;;;;;;;;;;;26.40;98.60;;;;;;5094778;28;19912;-68
2023/09/21 13:38:23;;;;;;;;;;;26.30;98.70;;;;;;5094547;28;19927;-68
2023/09/21 13:40:49;;;;;;;;;;;26.10;97.70;;;;;;5095170;28;20240;-68
2023/09/21 13:43:15;;;;;;;;;;;26.10;97.40;;;;;;5094323;28;19919;-67
2023/09/21 13:45:41;;;;;;;;;;;26.10;98.00;;;;;;5094812;28;19910;-68
2023/09/21 13:48:07;;;;;;;;;;;26.00;97.60;;;;;;5094743;28;20015;-68
2023/09/21 13:50:32;;;;;;;;;;;26.00;98.20;;;;;;5093543;28;19962;-67
2023/09/21 13:52:58;;;;;;;;;;;25.90;98.60;;;;;;5094324;28;19908;-67
2023/09/21 13:55:25;;;;;;;;;;;25.80;98.60;;;;;;5094699;28;20105;-67
2023/09/21 13:57:52;;;;;;;;;;;25.80;98.70;;;;;;5094427;28;19916;-66
2023/09/21 14:00:17;;;;;;;;;;;25.70;98.20;;;;;;5097212;28;19904;-64
2023/09/21 14:02:44;;;;;;;;;;;25.60;99.00;;;;;;5093731;28;19962;-65
2023/09/21 14:05:09;;;;;;;;;;;25.60;99.20;;;;;;5091234;28;19961;-64
2023/09/21 14:07:35;;;;;;;;;;;25.50;99.40;;;;;;5100287;28;19904;-64
2023/09/21 14:10:06;;;;;;;;;;;25.40;99.70;;;;;;5094456;28;19991;-65
2023/09/21 14:12:31;;;;;;;;;;;25.20;99.70;;;;;;5093122;28;20274;-64
2023/09/21 14:14:57;;;;;;;;;;;25.20;99.90;;;;;;5092943;28;19912;-64
2023/09/21 14:17:22;;;;;;;;;;;25.20;99.20;;;;;;5094132;28;19904;-64